createdAt,value
2022-11-24T00:01:05.466Z,-2.40
2022-11-24T00:03:32.778Z,-2.60
2022-11-24T00:06:07.968Z,-2.40
2022-11-24T00:08:36.040Z,-2.40
2022-11-24T00:11:11.591Z,-2.40
2022-11-24T00:13:39.800Z,-2.30
2022-11-24T00:16:09.756Z,-2.20
2022-11-24T00:18:37.250Z,-2.50
2022-11-24T00:21:04.753Z,-2.40
2022-11-24T00:23:32.322Z,-2.20
2022-11-24T00:26:17.393Z,-2.40
2022-11-24T00:28:45.395Z,-2.40
2022-11-24T00:31:24.256Z,-3.20
2022-11-24T00:33:53.734Z,-2.30
2022-11-24T00:36:22.672Z,-2.60
2022-11-24T00:38:58.288Z,-2.30
2022-11-24T00:41:26.937Z,-2.10
2022-11-24T00:43:54.776Z,-2.30
2022-11-24T00:46:23.453Z,-2.10
2022-11-24T00:48:51.234Z,-3.20
2022-11-24T00:51:20.010Z,-0.30
2022-11-24T00:53:47.620Z,-2.30
2022-11-24T00:56:15.004Z,-2.20
2022-11-24T00:58:42.241Z,-2.20
2022-11-24T01:01:16.087Z,-2.30
2022-11-24T01:03:43.560Z,-3.50
2022-11-24T01:06:14.486Z,-2.30
2022-11-24T01:08:42.125Z,-1.90
2022-11-24T01:11:23.223Z,-2.20
2022-11-24T01:13:54.574Z,-2.40
2022-11-24T01:16:33.536Z,-2.30
2022-11-24T01:19:01.292Z,-2.20
2022-11-24T01:21:28.453Z,-2.50
2022-11-24T01:26:23.618Z,-2.10
2022-11-24T01:28:56.022Z,-2.40
2022-11-24T01:33:51.307Z,-2.80
2022-11-24T01:38:46.041Z,-2.40
2022-11-24T01:41:19.495Z,-2.30
2022-11-24T01:46:35.849Z,-2.20
2022-11-24T01:49:09.235Z,-2.30
2022-11-24T01:51:44.997Z,-2.40
2022-11-24T01:54:18.946Z,-2.10
2022-11-24T01:56:49.124Z,-1.50
2022-11-24T01:59:20.071Z,-2.20
2022-11-24T02:01:51.574Z,-2.30
2022-11-24T02:04:24.207Z,-2.50
2022-11-24T02:06:53.046Z,-2.40
2022-11-24T02:09:28.712Z,-2.40
2022-11-24T02:11:56.863Z,-2.40
2022-11-24T02:14:25.228Z,-2.60
2022-11-24T02:16:53.426Z,-3.50
2022-11-24T02:19:55.506Z,-2.30
2022-11-24T02:22:57.105Z,-2.60
2022-11-24T02:25:27.083Z,-3.20
2022-11-24T02:27:56.331Z,-2.30
2022-11-24T02:30:24.286Z,-2.40
2022-11-24T02:32:52.713Z,-2.40
2022-11-24T02:35:19.996Z,-2.40
2022-11-24T02:40:25.258Z,-2.50
2022-11-24T02:43:00.771Z,-2.30
2022-11-24T02:45:29.585Z,-2.40
2022-11-24T02:47:56.802Z,-2.40
2022-11-24T02:50:24.387Z,-1.20
2022-11-24T02:52:51.837Z,-2.50
2022-11-24T02:57:48.137Z,-2.50
2022-11-24T03:00:15.980Z,-2.40
2022-11-24T03:02:43.318Z,-2.40
2022-11-24T03:05:13.034Z,-2.20
2022-11-24T03:07:40.379Z,-2.40
2022-11-24T03:10:08.608Z,-2.60
2022-11-24T03:12:35.924Z,-2.50
2022-11-24T03:20:04.657Z,-1.80
2022-11-24T03:22:32.782Z,-2.60
2022-11-24T03:25:00.067Z,-2.40
2022-11-24T03:29:54.888Z,-2.40
2022-11-24T03:32:22.263Z,-1.40
2022-11-24T03:34:49.444Z,-2.60
2022-11-24T03:37:16.724Z,-1.00
2022-11-24T03:39:44.029Z,-2.40
2022-11-24T03:44:38.677Z,-3.70
2022-11-24T03:49:35.250Z,-2.30
2022-11-24T03:52:07.637Z,-2.00
2022-11-24T03:59:30.980Z,-1.90
2022-11-24T04:01:58.252Z,-2.40
2022-11-24T04:04:25.484Z,-2.40
2022-11-24T04:06:52.824Z,-3.00
2022-11-24T04:09:20.375Z,-2.30
2022-11-24T04:12:06.266Z,-2.30
2022-11-24T04:14:33.758Z,-2.50
2022-11-24T04:21:56.240Z,-2.00
2022-11-24T04:26:51.006Z,-2.10
2022-11-24T04:29:18.230Z,-2.20
2022-11-24T04:36:41.213Z,-1.80
2022-11-24T04:39:24.421Z,-1.50
2022-11-24T04:41:54.141Z,-2.10
2022-11-24T04:46:49.078Z,-2.20
2022-11-24T04:49:16.407Z,-2.50
2022-11-24T04:51:44.213Z,-2.20
2022-11-24T04:54:13.047Z,-2.20
2022-11-24T04:56:41.366Z,-2.30
2022-11-24T04:59:12.752Z,-1.80
2022-11-24T05:01:40.083Z,-2.20
2022-11-24T05:06:34.938Z,-2.30
2022-11-24T05:11:29.842Z,-2.00
2022-11-24T05:16:24.782Z,-2.00
2022-11-24T05:18:52.057Z,-1.80
2022-11-24T05:23:46.683Z,-1.90
2022-11-24T05:28:41.559Z,-2.20
2022-11-24T05:31:08.924Z,-1.90
2022-11-24T05:33:37.140Z,-2.10
2022-11-24T05:36:06.425Z,-2.50
2022-11-24T05:41:05.871Z,-1.90
2022-11-24T05:46:01.640Z,-0.30
2022-11-24T05:48:29.315Z,-2.10
2022-11-24T05:50:57.639Z,-2.30
2022-11-24T05:53:26.573Z,-2.10
2022-11-24T05:55:53.838Z,-2.20
2022-11-24T06:00:48.921Z,-2.20
2022-11-24T06:03:16.127Z,-2.40
2022-11-24T06:05:47.362Z,-2.40
2022-11-24T06:08:14.878Z,-2.40
2022-11-24T06:10:42.459Z,-2.50
2022-11-24T06:15:37.908Z,-2.60
2022-11-24T06:20:33.187Z,-2.30
2022-11-24T06:23:01.367Z,-3.10
2022-11-24T06:25:29.525Z,-2.30
2022-11-24T06:30:24.419Z,-2.20
2022-11-24T06:32:55.706Z,-2.30
2022-11-24T06:35:22.946Z,-0.40
2022-11-24T06:37:50.220Z,-2.20
2022-11-24T06:40:17.691Z,-1.90
2022-11-24T06:42:51.574Z,-2.20
2022-11-24T06:45:18.831Z,-2.30
2022-11-24T06:47:46.110Z,-2.10
2022-11-24T06:52:40.893Z,-2.00
2022-11-24T06:55:08.598Z,-1.90
2022-11-24T06:57:35.947Z,-1.90
2022-11-24T07:00:05.639Z,-1.80
2022-11-24T07:05:00.783Z,-2.50
2022-11-24T07:07:27.990Z,-1.80
2022-11-24T07:12:24.452Z,-1.60
2022-11-24T07:14:51.721Z,-0.50
2022-11-24T07:17:18.804Z,-2.10
2022-11-24T07:19:46.016Z,-1.70
2022-11-24T07:24:40.617Z,-0.50
2022-11-24T07:27:07.809Z,-1.10
2022-11-24T07:29:35.150Z,-1.40
2022-11-24T07:32:05.733Z,-1.70
2022-11-24T07:37:01.258Z,-1.20
2022-11-24T07:39:28.498Z,-1.10
2022-11-24T07:41:55.622Z,-1.10
2022-11-24T07:46:51.591Z,-1.90
2022-11-24T07:49:19.315Z,-0.90
2022-11-24T07:51:46.539Z,-1.00
2022-11-24T07:59:08.908Z,-1.00
2022-11-24T08:01:36.120Z,-1.00
2022-11-24T08:06:38.639Z,-1.10
2022-11-24T08:11:37.042Z,-1.00
2022-11-24T08:14:04.246Z,-1.10
2022-11-24T08:18:59.656Z,-1.30
2022-11-24T08:21:27.204Z,-1.50
2022-11-24T08:23:55.898Z,-1.20
2022-11-24T08:28:59.405Z,-1.10
2022-11-24T08:31:33.598Z,-1.40
2022-11-24T08:34:04.945Z,-1.00
2022-11-24T08:39:00.949Z,-1.10
2022-11-24T08:41:29.300Z,-1.00
2022-11-24T08:43:57.682Z,-1.50
2022-11-24T08:46:25.207Z,-1.00
2022-11-24T08:48:54.855Z,-1.10
2022-11-24T08:51:25.198Z,-1.00
2022-11-24T08:54:01.098Z,-1.00
2022-11-24T08:56:29.989Z,-1.50
2022-11-24T08:58:58.000Z,-1.60
2022-11-24T09:06:25.155Z,-0.90
2022-11-24T09:08:56.485Z,-0.80
2022-11-24T09:11:24.790Z,-0.90
2022-11-24T09:13:52.824Z,-1.00
2022-11-24T09:16:22.896Z,-1.10
2022-11-24T09:18:59.378Z,-0.80
2022-11-24T09:21:27.072Z,-0.90
2022-11-24T09:23:55.803Z,-1.10
2022-11-24T09:26:26.822Z,-0.90
2022-11-24T09:28:55.425Z,-1.00
2022-11-24T09:31:28.444Z,-0.90
2022-11-24T09:36:25.915Z,-0.90
2022-11-24T09:41:32.670Z,-1.10
2022-11-24T09:44:43.564Z,-0.70
2022-11-24T09:47:43.669Z,-0.80
2022-11-24T09:50:15.298Z,-0.80
2022-11-24T09:53:05.688Z,-0.60
2022-11-24T09:55:35.578Z,-0.70
2022-11-24T09:58:26.439Z,-0.90
2022-11-24T10:00:56.073Z,-0.90
2022-11-24T10:03:42.051Z,-0.90
2022-11-24T10:06:26.820Z,-0.90
2022-11-24T10:08:59.886Z,-0.80
2022-11-24T10:11:36.786Z,-0.70
2022-11-24T10:14:32.285Z,-0.80
2022-11-24T10:17:24.884Z,-0.70
2022-11-24T10:20:06.556Z,-0.90
2022-11-24T10:22:47.602Z,-0.90
2022-11-24T10:25:30.784Z,-1.00
2022-11-24T10:28:03.539Z,-0.90
2022-11-24T10:30:31.311Z,-0.80
2022-11-24T10:33:08.207Z,-0.80
2022-11-24T10:35:39.892Z,-0.70
2022-11-24T10:38:21.575Z,0.00
2022-11-24T10:40:58.048Z,-0.70
2022-11-24T10:43:28.153Z,-0.30
2022-11-24T10:46:17.055Z,-0.90
2022-11-24T10:48:50.098Z,-0.90
2022-11-24T10:51:41.902Z,-0.80
2022-11-24T10:54:21.896Z,-0.80
2022-11-24T10:56:52.112Z,-0.80
2022-11-24T10:59:25.121Z,-0.80
2022-11-24T11:01:53.651Z,-0.70
2022-11-24T11:04:35.776Z,-0.70
2022-11-24T11:07:16.447Z,-0.70
2022-11-24T11:09:44.017Z,-0.80
2022-11-24T11:15:31.139Z,-0.60
2022-11-24T11:18:00.479Z,-0.80
2022-11-24T11:20:33.840Z,-0.60
2022-11-24T11:23:13.726Z,-0.70
2022-11-24T11:28:18.957Z,-0.80
2022-11-24T11:31:20.283Z,-0.50
2022-11-24T11:34:03.687Z,-0.40
2022-11-24T11:36:37.815Z,-0.70
2022-11-24T11:39:05.512Z,-0.40
2022-11-24T11:41:40.560Z,-0.40
2022-11-24T11:44:25.949Z,-0.50
2022-11-24T11:46:56.035Z,-0.70
2022-11-24T11:52:04.153Z,-0.50
2022-11-24T11:57:36.318Z,-0.60
2022-11-24T12:03:09.064Z,-0.60
2022-11-24T12:06:14.476Z,-0.50
2022-11-24T12:09:17.890Z,-0.70
2022-11-24T12:12:12.966Z,-0.50
2022-11-24T12:15:04.584Z,-0.70
2022-11-24T12:17:53.359Z,-0.70
2022-11-24T12:20:39.004Z,-0.70
2022-11-24T12:23:52.009Z,-0.50
2022-11-24T12:26:22.937Z,0.90
2022-11-24T12:31:53.182Z,-0.50
2022-11-24T12:34:38.761Z,-0.70
2022-11-24T12:37:40.515Z,-0.70
2022-11-24T12:40:19.338Z,-0.60
2022-11-24T12:45:17.387Z,-0.70
2022-11-24T12:48:24.499Z,0.30
2022-11-24T12:50:55.262Z,-0.40
2022-11-24T12:53:28.732Z,-0.70
2022-11-24T12:56:00.753Z,-0.40
2022-11-24T12:58:50.627Z,-0.50
2022-11-24T13:01:36.276Z,-0.60
2022-11-24T13:04:37.231Z,-0.60
2022-11-24T13:07:36.727Z,-0.50
2022-11-24T13:10:46.900Z,-0.60
2022-11-24T13:13:14.870Z,-0.70
2022-11-24T13:18:53.615Z,-0.60
2022-11-24T13:21:51.926Z,-0.50
2022-11-24T13:24:20.198Z,-0.60
2022-11-24T13:27:24.655Z,-0.80
2022-11-24T13:29:53.312Z,-2.40
2022-11-24T13:32:21.400Z,-0.70
2022-11-24T13:34:55.249Z,-0.60
2022-11-24T13:37:34.602Z,-0.70
2022-11-24T13:40:12.581Z,-0.70
2022-11-24T13:42:55.250Z,-0.70
2022-11-24T13:45:49.455Z,-0.80
2022-11-24T13:48:19.874Z,-0.70
2022-11-24T13:50:50.193Z,-0.70
2022-11-24T13:53:26.317Z,-0.80
2022-11-24T13:56:00.966Z,-0.80
2022-11-24T13:58:35.430Z,-4.40
2022-11-24T14:01:19.651Z,-1.70
2022-11-24T14:04:33.568Z,-0.20
2022-11-24T14:07:09.028Z,-0.80
2022-11-24T14:09:47.078Z,-0.80
2022-11-24T14:12:34.366Z,-0.80
2022-11-24T14:15:25.996Z,-0.80
2022-11-24T14:17:53.181Z,-0.90
2022-11-24T14:20:26.061Z,-1.20
2022-11-24T14:22:54.426Z,-0.90
2022-11-24T14:25:30.132Z,-0.90
2022-11-24T14:27:57.781Z,-0.90
2022-11-24T14:30:26.436Z,-1.00
2022-11-24T14:33:01.686Z,-1.20
2022-11-24T14:35:34.693Z,-1.00
2022-11-24T14:38:04.373Z,-0.70
2022-11-24T14:40:50.451Z,-0.90
2022-11-24T14:43:22.818Z,-0.90
2022-11-24T14:46:01.038Z,-1.00
2022-11-24T14:48:34.248Z,-1.10
2022-11-24T14:51:28.365Z,-1.00
2022-11-24T14:54:01.843Z,-0.90
2022-11-24T14:56:36.481Z,-0.70
2022-11-24T14:59:04.591Z,-0.90
2022-11-24T15:01:36.371Z,-0.90
2022-11-24T15:04:38.777Z,-1.00
2022-11-24T15:07:22.151Z,-2.40
2022-11-24T15:09:49.307Z,-0.90
2022-11-24T15:12:30.872Z,-0.90
2022-11-24T15:15:03.458Z,-1.30
2022-11-24T15:17:31.561Z,-0.90
2022-11-24T15:20:17.183Z,-1.00
2022-11-24T15:22:45.243Z,-0.80
2022-11-24T15:25:33.911Z,-0.90
2022-11-24T15:28:01.507Z,-1.10
2022-11-24T15:30:29.642Z,-0.80
2022-11-24T15:32:58.641Z,-1.00
2022-11-24T15:35:29.873Z,-1.00
2022-11-24T15:37:57.308Z,-0.90
2022-11-24T15:42:59.659Z,-0.90
2022-11-24T15:45:30.602Z,-1.10
2022-11-24T15:47:57.761Z,-0.90
2022-11-24T15:50:25.167Z,-0.90
2022-11-24T15:52:52.526Z,-0.90
2022-11-24T15:55:22.010Z,-0.20
2022-11-24T15:57:49.743Z,-0.80
2022-11-24T16:00:19.786Z,-1.10
2022-11-24T16:02:47.627Z,-0.90
2022-11-24T16:05:16.025Z,-0.90
2022-11-24T16:07:43.807Z,0.00
2022-11-24T16:10:28.699Z,-0.70
2022-11-24T16:17:50.884Z,-1.00
2022-11-24T16:20:18.453Z,-1.00
2022-11-24T16:25:14.113Z,-1.00
2022-11-24T16:30:11.956Z,-0.90
2022-11-24T16:32:39.524Z,-0.90
2022-11-24T16:40:03.495Z,-1.30
2022-11-24T16:44:58.806Z,-1.00
2022-11-24T16:47:26.028Z,-1.00
2022-11-24T16:49:53.685Z,-0.90
2022-11-24T16:52:21.558Z,-0.90
2022-11-24T16:54:49.010Z,-1.10
2022-11-24T16:57:19.591Z,-0.90
2022-11-24T17:02:14.852Z,-1.40
2022-11-24T17:04:42.060Z,-1.00
2022-11-24T17:07:09.435Z,-0.90
2022-11-24T17:12:08.184Z,-1.00
2022-11-24T17:19:34.374Z,-1.00
2022-11-24T17:24:29.452Z,-1.10
2022-11-24T17:26:56.831Z,-1.00
2022-11-24T17:29:24.672Z,-1.00
2022-11-24T17:31:51.911Z,-1.00
2022-11-24T17:34:19.301Z,-0.10
2022-11-24T17:36:46.872Z,-1.00
2022-11-24T17:44:10.850Z,-1.40
2022-11-24T17:46:39.071Z,-1.10
2022-11-24T17:49:08.643Z,-1.00
2022-11-24T17:51:35.781Z,-0.90
2022-11-24T17:54:13.595Z,-1.00
2022-11-24T17:56:50.287Z,-1.00
2022-11-24T18:01:45.082Z,-1.00
2022-11-24T18:04:12.285Z,-1.10
2022-11-24T18:09:07.098Z,-1.00
2022-11-24T18:11:34.380Z,-1.00
2022-11-24T18:14:04.332Z,-0.90
2022-11-24T18:16:34.385Z,-1.00
2022-11-24T18:19:11.561Z,-1.10
2022-11-24T18:21:44.050Z,0.10
2022-11-24T18:24:12.735Z,-1.10
2022-11-24T18:26:41.929Z,-1.10
2022-11-24T18:29:09.888Z,-1.30
2022-11-24T18:31:38.157Z,-0.20
2022-11-24T18:34:06.443Z,-1.10
2022-11-24T18:39:06.688Z,-1.10
2022-11-24T18:44:08.214Z,-1.10
2022-11-24T18:46:35.680Z,-1.10
2022-11-24T18:49:03.070Z,-1.10
2022-11-24T18:51:30.319Z,-1.30
2022-11-24T18:58:57.972Z,-1.20
2022-11-24T19:01:27.844Z,-1.10
2022-11-24T19:03:58.239Z,-1.10
2022-11-24T19:08:56.735Z,-1.00
2022-11-24T19:11:29.282Z,-1.40
2022-11-24T19:13:57.422Z,-1.20
2022-11-24T19:16:25.491Z,-0.60
2022-11-24T19:18:54.210Z,-1.00
2022-11-24T19:21:22.641Z,-1.30
2022-11-24T19:23:50.623Z,-0.90
2022-11-24T19:26:18.599Z,-1.00
2022-11-24T19:31:15.577Z,-1.10
2022-11-24T19:33:43.473Z,-1.10
2022-11-24T19:36:19.360Z,-1.10
2022-11-24T19:38:51.720Z,-1.30
2022-11-24T19:41:21.161Z,-1.10
2022-11-24T19:43:49.106Z,-1.00
2022-11-24T19:46:18.580Z,-1.00
2022-11-24T19:48:50.375Z,-1.00
2022-11-24T19:51:33.308Z,-1.10
2022-11-24T19:54:00.961Z,-1.00
2022-11-24T19:56:30.274Z,-0.50
2022-11-24T19:58:57.617Z,-1.00
2022-11-24T20:01:26.348Z,-1.00
2022-11-24T20:04:08.256Z,0.10
2022-11-24T20:06:38.761Z,-1.00
2022-11-24T20:09:08.881Z,-1.10
2022-11-24T20:11:36.586Z,-1.00
2022-11-24T20:14:04.604Z,-1.00
2022-11-24T20:16:33.990Z,-0.40
2022-11-24T20:19:07.793Z,-1.20
2022-11-24T20:21:36.808Z,-1.10
2022-11-24T20:24:05.509Z,-0.10
2022-11-24T20:26:36.527Z,-1.00
2022-11-24T20:29:04.632Z,-1.60
2022-11-24T20:31:34.935Z,-1.30
2022-11-24T20:34:03.781Z,-1.10
2022-11-24T20:36:32.686Z,-1.30
2022-11-24T20:39:01.711Z,-1.20
2022-11-24T20:41:32.593Z,-1.30
2022-11-24T20:44:02.245Z,-1.20
2022-11-24T20:46:32.407Z,-1.30
2022-11-24T20:49:00.466Z,-1.20
2022-11-24T20:51:29.985Z,-1.10
2022-11-24T20:54:00.128Z,-1.00
2022-11-24T20:56:30.038Z,-1.00
2022-11-24T20:58:57.829Z,-1.10
2022-11-24T21:01:30.835Z,-1.10
2022-11-24T21:03:59.820Z,-1.10
2022-11-24T21:06:28.316Z,-1.00
2022-11-24T21:09:00.504Z,-1.10
2022-11-24T21:11:30.839Z,-2.10
2022-11-24T21:13:58.384Z,-1.00
2022-11-24T21:16:28.169Z,-1.10
2022-11-24T21:18:58.109Z,-1.10
2022-11-24T21:21:28.143Z,-1.10
2022-11-24T21:23:55.389Z,-1.20
2022-11-24T21:26:22.532Z,0.50
2022-11-24T21:31:19.816Z,-1.20
2022-11-24T21:33:49.149Z,-1.20
2022-11-24T21:36:18.985Z,-1.20
2022-11-24T21:38:53.542Z,-1.20
2022-11-24T21:41:22.101Z,-1.20
2022-11-24T21:46:18.076Z,-1.20
2022-11-24T21:51:15.786Z,-1.20
2022-11-24T21:53:44.796Z,-0.20
2022-11-24T21:56:14.449Z,-1.00
2022-11-24T21:58:45.862Z,-1.10
2022-11-24T22:01:13.754Z,-2.40
2022-11-24T22:03:41.143Z,-1.20
2022-11-24T22:06:08.705Z,0.00
2022-11-24T22:08:36.349Z,-1.20
2022-11-24T22:11:06.686Z,-1.20
2022-11-24T22:13:34.567Z,-1.20
2022-11-24T22:16:02.099Z,-1.10
2022-11-24T22:18:38.225Z,-1.10
2022-11-24T22:21:07.541Z,-1.10
2022-11-24T22:23:36.036Z,-1.20
2022-11-24T22:26:07.326Z,-1.30
2022-11-24T22:28:35.653Z,-1.10
2022-11-24T22:31:07.605Z,-1.10
2022-11-24T22:33:35.700Z,-1.10
2022-11-24T22:36:03.458Z,-1.20
2022-11-24T22:38:31.449Z,-1.10
2022-11-24T22:41:25.349Z,-1.00
2022-11-24T22:43:53.885Z,-0.70
2022-11-24T22:46:23.409Z,-0.90
2022-11-24T22:48:54.520Z,-1.20
2022-11-24T22:53:51.323Z,-1.10
2022-11-24T22:56:19.808Z,-1.00
2022-11-24T23:01:23.494Z,-0.90
2022-11-24T23:03:56.091Z,-1.00
2022-11-24T23:06:28.978Z,-1.00
2022-11-24T23:08:56.974Z,-1.10
2022-11-24T23:11:51.541Z,-1.10
2022-11-24T23:14:18.795Z,-1.10
2022-11-24T23:16:46.046Z,-1.00
2022-11-24T23:19:13.357Z,-0.90
2022-11-24T23:21:40.624Z,-1.20
2022-11-24T23:24:09.038Z,-1.10
2022-11-24T23:26:38.488Z,-1.20
2022-11-24T23:31:33.923Z,-1.10
2022-11-24T23:34:03.034Z,-1.30
2022-11-24T23:36:31.276Z,-1.00
2022-11-24T23:39:11.501Z,-1.10
2022-11-24T23:44:06.475Z,-1.20
2022-11-24T23:46:33.688Z,-1.20
2022-11-24T23:49:00.899Z,-2.20
2022-11-24T23:51:31.183Z,-1.10
2022-11-24T23:54:00.172Z,-1.00
2022-11-24T23:56:33.054Z,-1.00
2022-11-24T23:59:01.942Z,-1.10
